Time;durP1;ratioP1;P1;durP2;ratioP2;P2;SDS_P1;SDS_P2;PMS_P1;PMS_P2;Temp;Humidity;BMP_temperature;BMP_pressure;BME280_temperature;BME280_humidity;BME280_pressure;Samples;Min_cycle;Max_cycle;Signal;HPM_P1;HPM_P2
2022/08/09 00:01:30;;;;;;;61.03;50.45;;;25.50;51.60;;;;;;4936380;28;90438;-56
2022/08/09 00:03:56;;;;;;;60.83;50.58;;;25.40;51.50;;;;;;4943673;28;90295;-54
2022/08/09 00:06:22;;;;;;;60.58;50.33;;;25.50;51.60;;;;;;4937236;28;92833;-54
2022/08/09 00:08:49;;;;;;;61.50;50.35;;;25.40;51.60;;;;;;4939873;28;96654;-54
2022/08/09 00:11:16;;;;;;;60.60;50.28;;;25.50;51.80;;;;;;4918454;28;97695;-56
2022/08/09 00:13:42;;;;;;;61.17;50.50;;;25.40;51.60;;;;;;4947862;28;89976;-53
2022/08/09 00:16:08;;;;;;;60.67;50.35;;;25.40;51.60;;;;;;4935606;28;90467;-56
2022/08/09 00:18:34;;;;;;;61.28;50.65;;;25.40;51.60;;;;;;4944820;28;90206;-56
2022/08/09 00:21:01;;;;;;;60.40;50.28;;;25.40;51.70;;;;;;4935227;28;92332;-56
2022/08/09 00:23:27;;;;;;;61.10;50.47;;;25.40;51.60;;;;;;4943127;28;91769;-57
2022/08/09 00:25:53;;;;;;;60.50;50.40;;;25.40;51.50;;;;;;4950603;28;90207;-55
2022/08/09 00:28:19;;;;;;;61.60;50.67;;;25.40;51.50;;;;;;4944093;28;90352;-56
2022/08/09 00:30:44;;;;;;;60.97;50.30;;;25.40;51.70;;;;;;4937168;28;92083;-56
2022/08/09 00:33:10;;;;;;;60.50;50.35;;;25.40;51.60;;;;;;4952550;28;90171;-56
2022/08/09 00:35:35;;;;;;;60.55;50.55;;;25.40;51.70;;;;;;4938791;28;90099;-54
2022/08/09 00:38:01;;;;;;;60.47;50.45;;;25.40;51.60;;;;;;4946407;28;90404;-56
2022/08/09 00:40:27;;;;;;;60.78;50.35;;;25.40;51.70;;;;;;4942639;28;91588;-55
2022/08/09 00:42:52;;;;;;;61.00;50.60;;;25.40;51.70;;;;;;4940948;28;94607;-55
2022/08/09 00:45:18;;;;;;;60.75;50.38;;;25.40;51.60;;;;;;4935511;28;89931;-50
2022/08/09 00:47:44;;;;;;;61.25;50.35;;;25.40;51.80;;;;;;4942477;28;90956;-55
2022/08/09 00:50:09;;;;;;;60.83;50.53;;;25.30;51.60;;;;;;4940692;28;91938;-56
2022/08/09 00:52:36;;;;;;;60.05;50.03;;;25.40;51.70;;;;;;4942305;28;90052;-58
2022/08/09 00:55:02;;;;;;;61.00;50.53;;;25.40;51.70;;;;;;4929066;28;96065;-52
2022/08/09 00:57:31;;;;;;;60.78;50.42;;;25.40;51.70;;;;;;4938940;28;91318;-56
2022/08/09 00:59:57;;;;;;;61.10;50.42;;;25.30;51.60;;;;;;4949096;28;89897;-51
2022/08/09 01:02:28;;;;;;;60.40;50.35;;;25.30;51.60;;;;;;4938670;28;90402;-54
2022/08/09 01:05:05;;;;;;;60.47;50.25;;;25.30;51.60;;;;;;4936472;28;93447;-56
2022/08/09 01:07:47;;;;;;;60.53;50.03;;;25.40;51.70;;;;;;4928627;28;90389;-57
2022/08/09 01:10:35;;;;;;;60.53;50.27;;;25.30;51.70;;;;;;4948317;28;91207;-54
2022/08/09 01:13:13;;;;;;;60.45;50.35;;;25.40;51.70;;;;;;4940873;28;89467;-55
2022/08/09 01:15:44;;;;;;;60.28;50.22;;;25.30;51.70;;;;;;4943210;28;90436;-54
2022/08/09 01:18:21;;;;;;;60.35;50.25;;;25.30;51.70;;;;;;4934871;28;89836;-54
2022/08/09 01:20:58;;;;;;;61.08;50.25;;;25.30;51.60;;;;;;4936611;28;94266;-57
2022/08/09 01:23:58;;;;;;;60.70;50.35;;;25.30;51.70;;;;;;4935081;28;90952;-55
2022/08/09 01:26:41;;;;;;;60.58;50.25;;;25.30;51.70;;;;;;4929108;28;90377;-57
2022/08/09 01:29:11;;;;;;;60.47;50.20;;;25.30;51.60;;;;;;4950472;28;89675;-56
2022/08/09 01:31:40;;;;;;;60.33;50.28;;;25.30;51.70;;;;;;4930903;28;94857;-57
2022/08/09 01:34:09;;;;;;;62.58;50.47;;;25.30;52.30;;;;;;4940502;28;94906;-55
2022/08/09 01:36:37;;;;;;;60.78;50.30;;;25.30;51.70;;;;;;4940143;28;90163;-56
2022/08/09 01:39:03;;;;;;;61.05;50.25;;;25.30;51.60;;;;;;4931823;28;90855;-57
2022/08/09 01:41:31;;;;;;;60.38;50.22;;;25.20;51.50;;;;;;4933010;28;90983;-50
2022/08/09 01:44:00;;;;;;;60.63;50.25;;;25.20;51.60;;;;;;4937799;28;90357;-55
2022/08/09 01:46:30;;;;;;;60.25;50.22;;;25.20;51.70;;;;;;4935912;28;91755;-55
2022/08/09 01:49:04;;;;;;;60.45;50.30;;;25.20;51.60;;;;;;4930182;28;94587;-53
2022/08/09 01:51:30;;;;;;;60.50;50.25;;;25.20;51.80;;;;;;4932713;28;90264;-55
2022/08/09 01:53:58;;;;;;;60.65;50.55;;;25.20;51.60;;;;;;4936359;28;90287;-56
2022/08/09 01:56:27;;;;;;;59.85;50.05;;;25.20;51.60;;;;;;4943358;28;90447;-51
2022/08/09 01:58:56;;;;;;;60.30;50.10;;;25.20;51.70;;;;;;4931041;28;92179;-50
2022/08/09 02:01:24;;;;;;;60.22;50.10;;;25.20;51.70;;;;;;4932077;28;92431;-53
2022/08/09 02:03:51;;;;;;;60.40;50.25;;;25.20;51.70;;;;;;4938288;28;90821;-57
2022/08/09 02:07:07;;;;;;;60.00;50.25;;;25.20;51.80;;;;;;4946850;28;91654;-56
2022/08/09 02:09:07;;;;;;;60.65;50.25;;;25.20;51.70;;;;;;4946812;28;90647;-55
2022/08/09 02:11:32;;;;;;;60.28;50.15;;;25.20;51.70;;;;;;4934250;28;91529;-55
2022/08/09 02:13:59;;;;;;;61.15;50.25;;;25.20;51.60;;;;;;4940609;28;90102;-51
2022/08/09 02:16:29;;;;;;;60.95;50.33;;;25.20;51.70;;;;;;4938387;28;90723;-51
2022/08/09 02:18:55;;;;;;;60.22;50.13;;;25.20;51.70;;;;;;4937872;28;95455;-58
2022/08/09 02:21:23;;;;;;;60.40;50.38;;;25.20;51.80;;;;;;4933159;28;91453;-56
2022/08/09 02:23:53;;;;;;;60.40;50.35;;;25.20;51.70;;;;;;4937482;28;94369;-56
2022/08/09 02:26:19;;;;;;;60.28;50.15;;;25.20;51.70;;;;;;4936303;28;91267;-52
2022/08/09 02:28:52;;;;;;;60.17;50.05;;;25.10;51.60;;;;;;4942053;28;91502;-54
2022/08/09 02:31:25;;;;;;;59.72;49.83;;;25.20;51.80;;;;;;4935582;28;90352;-53
2022/08/09 02:33:54;;;;;;;59.85;49.95;;;25.10;51.70;;;;;;4949081;28;92190;-53
2022/08/09 02:36:28;;;;;;;59.70;49.92;;;25.10;51.70;;;;;;4932757;28;91349;-56
2022/08/09 02:38:57;;;;;;;59.85;50.10;;;25.10;51.70;;;;;;4944493;28;91289;-51
2022/08/09 02:41:39;;;;;;;60.35;50.17;;;25.10;51.70;;;;;;4936844;28;90819;-56
2022/08/09 02:44:10;;;;;;;60.05;49.97;;;25.10;51.70;;;;;;4935199;28;89765;-52
2022/08/09 02:46:37;;;;;;;59.60;49.90;;;25.10;51.80;;;;;;4938480;28;90379;-54
2022/08/09 02:49:09;;;;;;;60.45;50.15;;;25.10;51.70;;;;;;4926420;28;92907;-54
2022/08/09 02:51:38;;;;;;;60.40;50.05;;;25.10;51.70;;;;;;4940514;28;92108;-56
2022/08/09 02:54:05;;;;;;;60.13;50.03;;;25.10;51.80;;;;;;4937441;28;91453;-56
2022/08/09 02:56:32;;;;;;;60.03;50.10;;;25.10;51.70;;;;;;4931684;28;93534;-54
2022/08/09 02:59:04;;;;;;;60.55;50.25;;;25.10;51.80;;;;;;4938582;28;92159;-58
2022/08/09 03:01:31;;;;;;;59.80;49.95;;;25.10;51.80;;;;;;4935706;28;92700;-51
2022/08/09 03:03:59;;;;;;;59.95;50.15;;;25.00;51.80;;;;;;4931995;28;92003;-51
2022/08/09 03:06:26;;;;;;;60.30;50.03;;;25.00;51.70;;;;;;4923929;28;93163;-55
2022/08/09 03:08:53;;;;;;;60.80;50.05;;;25.00;51.80;;;;;;4937414;28;95573;-56
2022/08/09 03:11:21;;;;;;;60.67;50.05;;;25.00;51.80;;;;;;4934282;28;90131;-55
2022/08/09 03:13:47;;;;;;;60.08;50.15;;;25.00;51.70;;;;;;4941197;28;94727;-54
2022/08/09 03:16:17;;;;;;;59.92;50.15;;;25.00;51.70;;;;;;4933673;28;93717;-57
2022/08/09 03:18:44;;;;;;;60.40;50.15;;;25.00;51.80;;;;;;4937505;28;89908;-55
2022/08/09 03:21:10;;;;;;;60.38;49.92;;;25.00;51.80;;;;;;4939261;28;96009;-56
2022/08/09 03:23:36;;;;;;;59.63;49.85;;;25.00;51.70;;;;;;4936426;28;90077;-54
2022/08/09 03:26:03;;;;;;;59.78;49.97;;;25.00;51.80;;;;;;4938619;28;91292;-55
2022/08/09 03:28:29;;;;;;;59.88;50.03;;;24.90;51.90;;;;;;4947519;28;91624;-52
2022/08/09 03:30:56;;;;;;;59.70;50.00;;;25.00;51.90;;;;;;4935390;28;96965;-52
2022/08/09 03:33:23;;;;;;;59.85;49.85;;;25.00;51.80;;;;;;4944792;28;90608;-51
2022/08/09 03:35:52;;;;;;;60.10;50.15;;;24.90;51.80;;;;;;4940429;28;92095;-54
2022/08/09 03:38:17;;;;;;;59.67;50.10;;;25.00;51.90;;;;;;4947207;28;93637;-56
2022/08/09 03:40:43;;;;;;;60.15;50.03;;;24.90;51.80;;;;;;4938988;28;90674;-55
2022/08/09 03:43:09;;;;;;;59.83;49.95;;;24.90;51.80;;;;;;4938449;28;89847;-53
2022/08/09 03:45:35;;;;;;;59.95;49.97;;;24.90;51.80;;;;;;4920383;28;92707;-57
2022/08/09 03:48:01;;;;;;;59.63;49.83;;;24.90;51.80;;;;;;4941361;28;91442;-51
2022/08/09 03:50:28;;;;;;;60.40;49.95;;;24.90;51.80;;;;;;4930501;28;90841;-53
2022/08/09 03:52:57;;;;;;;59.42;49.92;;;24.90;51.90;;;;;;4942078;28;90936;-53
2022/08/09 03:55:23;;;;;;;60.13;50.22;;;24.80;51.90;;;;;;4941539;28;94587;-54
2022/08/09 03:57:49;;;;;;;60.22;50.05;;;24.90;51.90;;;;;;4945301;28;89995;-47
2022/08/09 04:00:16;;;;;;;60.05;50.10;;;24.90;52.00;;;;;;4934546;28;89936;-54
2022/08/09 04:02:43;;;;;;;59.40;49.88;;;24.90;52.00;;;;;;4935274;28;90990;-49
2022/08/09 04:05:09;;;;;;;59.75;49.92;;;24.90;51.90;;;;;;4933016;28;91913;-53
2022/08/09 04:07:35;;;;;;;59.55;49.97;;;24.90;52.00;;;;;;4946975;28;90020;-56
2022/08/09 04:10:02;;;;;;;60.25;49.92;;;24.80;51.90;;;;;;4946625;28;90034;-54
2022/08/09 04:12:42;;;;;;;59.53;49.78;;;24.80;52.00;;;;;;4943443;28;97396;-53
2022/08/09 04:15:09;;;;;;;59.63;50.00;;;24.80;52.60;;;;;;4923368;28;94732;-55
2022/08/09 04:17:34;;;;;;;59.22;49.80;;;24.90;52.00;;;;;;4933479;28;91552;-55
2022/08/09 04:20:00;;;;;;;60.17;49.85;;;24.80;52.00;;;;;;4944167;28;92954;-53
2022/08/09 04:22:26;;;;;;;59.80;49.92;;;24.80;51.90;;;;;;4946268;28;91619;-54
2022/08/09 04:24:52;;;;;;;59.70;50.05;;;24.90;52.00;;;;;;4947685;28;94003;-56
2022/08/09 04:27:17;;;;;;;60.08;50.05;;;24.80;52.10;;;;;;4940915;28;93521;-54
2022/08/09 04:29:43;;;;;;;59.28;49.70;;;24.80;52.10;;;;;;4945042;28;90102;-51
2022/08/09 04:32:09;;;;;;;59.53;49.85;;;24.80;52.10;;;;;;4949437;28;93690;-56
2022/08/09 04:34:34;;;;;;;59.47;49.92;;;24.80;52.10;;;;;;4931499;28;96451;-51
2022/08/09 04:37:00;;;;;;;60.00;50.10;;;24.80;52.10;;;;;;4940260;28;90173;-55
2022/08/09 04:39:26;;;;;;;60.13;49.95;;;24.80;52.20;;;;;;4952214;28;91153;-54
2022/08/09 04:41:52;;;;;;;60.95;50.03;;;24.80;52.10;;;;;;4944545;28;89612;-50
2022/08/09 04:44:17;;;;;;;60.08;50.13;;;24.70;52.10;;;;;;4948355;28;90123;-56
2022/08/09 04:46:43;;;;;;;59.72;49.97;;;24.80;52.10;;;;;;4945086;28;92026;-48
2022/08/09 04:49:09;;;;;;;59.50;49.70;;;24.70;52.10;;;;;;4938026;28;95543;-56
2022/08/09 04:51:35;;;;;;;59.35;49.78;;;24.70;52.10;;;;;;4938237;28;94620;-56
2022/08/09 04:54:00;;;;;;;60.35;50.03;;;24.80;52.10;;;;;;4946340;28;90041;-55
2022/08/09 04:56:26;;;;;;;59.22;49.70;;;24.70;52.10;;;;;;4949270;28;92055;-51
2022/08/09 04:58:52;;;;;;;59.60;49.85;;;24.70;52.20;;;;;;4948393;28;89433;-58
2022/08/09 05:01:18;;;;;;;59.40;50.00;;;24.70;52.20;;;;;;4940583;28;92618;-50
2022/08/09 05:03:44;;;;;;;59.83;50.08;;;24.70;52.20;;;;;;4933906;28;96078;-54
2022/08/09 05:06:12;;;;;;;60.15;50.05;;;24.70;52.10;;;;;;4944287;28;93949;-51
2022/08/09 05:08:38;;;;;;;59.70;49.92;;;24.70;52.20;;;;;;4939129;28;91202;-54
2022/08/09 05:11:05;;;;;;;59.67;50.08;;;24.70;52.20;;;;;;4939336;28;91441;-56
2022/08/09 05:13:30;;;;;;;59.83;50.05;;;24.70;52.20;;;;;;4944572;28;90371;-53
2022/08/09 05:15:56;;;;;;;60.10;49.95;;;24.70;52.20;;;;;;4941745;28;89608;-50
2022/08/09 05:18:21;;;;;;;59.95;50.05;;;24.70;52.20;;;;;;4944986;28;89910;-56
2022/08/09 05:20:47;;;;;;;61.17;50.10;;;24.70;52.20;;;;;;4955945;28;89494;-57
2022/08/09 05:23:13;;;;;;;59.70;50.08;;;24.70;52.20;;;;;;4948346;28;89846;-55
2022/08/09 05:25:39;;;;;;;60.47;49.85;;;24.70;52.20;;;;;;4937498;28;92418;-57
2022/08/09 05:28:04;;;;;;;60.45;49.92;;;24.70;52.20;;;;;;4925447;28;91177;-58
2022/08/09 05:30:30;;;;;;;60.22;50.05;;;24.70;52.20;;;;;;4941191;28;90357;-53
2022/08/09 05:32:56;;;;;;;60.78;50.20;;;24.70;52.30;;;;;;4938664;28;90170;-52
2022/08/09 05:35:21;;;;;;;60.00;50.05;;;24.70;52.20;;;;;;4934998;28;93248;-51
2022/08/09 05:37:50;;;;;;;59.97;49.78;;;24.70;52.20;;;;;;4948074;28;92051;-54
2022/08/09 05:40:16;;;;;;;59.90;49.65;;;24.70;52.20;;;;;;4945525;28;91201;-54
2022/08/09 05:42:42;;;;;;;60.65;50.20;;;24.70;52.20;;;;;;4941438;28;89769;-53
2022/08/09 05:45:08;;;;;;;60.03;50.25;;;24.70;52.30;;;;;;4933444;28;89862;-54
2022/08/09 05:47:33;;;;;;;59.85;49.85;;;24.70;52.20;;;;;;4938030;28;90870;-52
2022/08/09 05:49:59;;;;;;;59.92;50.15;;;24.70;52.30;;;;;;4941466;28;89935;-59
2022/08/09 05:52:25;;;;;;;62.08;50.17;;;24.70;52.20;;;;;;4930130;28;91641;-53
2022/08/09 05:54:50;;;;;;;60.25;50.05;;;24.70;52.20;;;;;;4934374;28;93744;-55
2022/08/09 05:57:16;;;;;;;61.30;50.15;;;24.70;52.20;;;;;;4942112;28;90034;-57
2022/08/09 05:59:42;;;;;;;59.67;50.03;;;24.70;52.30;;;;;;4937487;28;93337;-54
2022/08/09 06:02:08;;;;;;;60.22;49.97;;;24.70;52.30;;;;;;4941170;28;90732;-56
2022/08/09 06:04:35;;;;;;;60.22;50.28;;;24.70;52.00;;;;;;4949010;28;90655;-53
2022/08/09 06:07:01;;;;;;;60.03;50.35;;;24.70;52.30;;;;;;4952533;28;89879;-55
2022/08/09 06:09:27;;;;;;;60.83;50.05;;;24.70;52.20;;;;;;4943200;28;92545;-55
2022/08/09 06:11:52;;;;;;;60.88;50.20;;;24.70;52.20;;;;;;4944708;28;93543;-54
2022/08/09 06:14:18;;;;;;;60.85;50.45;;;24.70;52.20;;;;;;4936141;28;90879;-56
2022/08/09 06:16:43;;;;;;;60.05;50.13;;;24.70;52.20;;;;;;4958332;28;90855;-52
2022/08/09 06:19:09;;;;;;;60.47;50.20;;;24.70;52.90;;;;;;4950797;28;93220;-58
2022/08/09 06:21:35;;;;;;;61.72;50.35;;;24.70;52.20;;;;;;4939675;28;90157;-56
2022/08/09 06:24:00;;;;;;;61.33;50.30;;;24.70;52.20;;;;;;4941630;28;89875;-48
2022/08/09 06:26:26;;;;;;;60.67;50.08;;;24.70;52.30;;;;;;4947039;28;90320;-57
2022/08/09 06:28:54;;;;;;;61.47;50.38;;;24.70;52.30;;;;;;4935408;28;95403;-50
2022/08/09 06:31:20;;;;;;;60.53;50.47;;;24.70;52.30;;;;;;4942067;28;92243;-56
2022/08/09 06:33:45;;;;;;;62.08;50.58;;;24.70;52.20;;;;;;4941798;28;92536;-57
2022/08/09 06:36:11;;;;;;;61.72;50.50;;;24.70;52.20;;;;;;4933705;28;90097;-51
2022/08/09 06:38:37;;;;;;;62.45;50.88;;;24.70;52.30;;;;;;4945950;28;89713;-52
2022/08/09 06:41:03;;;;;;;62.08;50.67;;;24.70;52.40;;;;;;4944899;28;91140;-50
2022/08/09 06:43:30;;;;;;;61.75;51.05;;;24.70;52.30;;;;;;4948667;28;90095;-55
2022/08/09 06:45:56;;;;;;;61.70;50.90;;;24.70;52.40;;;;;;4940685;28;90201;-53
2022/08/09 06:48:21;;;;;;;62.05;50.78;;;24.70;52.30;;;;;;4941534;28;91377;-54
2022/08/09 06:50:47;;;;;;;61.90;50.75;;;24.70;52.30;;;;;;4950543;28;89930;-51
2022/08/09 06:53:13;;;;;;;61.10;50.70;;;24.70;52.40;;;;;;4933832;28;89774;-51
2022/08/09 06:55:38;;;;;;;61.85;50.85;;;24.70;52.50;;;;;;4937179;28;90039;-54
2022/08/09 06:58:04;;;;;;;61.58;50.80;;;24.70;52.50;;;;;;4945705;28;89975;-49
2022/08/09 07:00:34;;;;;;;63.88;51.17;;;24.70;52.40;;;;;;4950076;28;90841;-53
2022/08/09 07:03:00;;;;;;;62.05;50.85;;;24.70;52.40;;;;;;4937090;28;91065;-50
2022/08/09 07:05:26;;;;;;;64.20;51.35;;;24.70;52.40;;;;;;4937938;28;93490;-51
2022/08/09 07:07:53;;;;;;;62.70;51.10;;;24.70;52.50;;;;;;4941315;28;89918;-52
2022/08/09 07:10:20;;;;;;;63.65;51.15;;;24.70;52.50;;;;;;4941731;28;90331;-57
2022/08/09 07:12:45;;;;;;;62.25;51.03;;;24.70;52.40;;;;;;4939002;28;90371;-56
2022/08/09 07:15:11;;;;;;;61.55;50.80;;;24.70;52.50;;;;;;4948290;28;90295;-51
2022/08/09 07:17:37;;;;;;;61.95;51.00;;;24.70;52.50;;;;;;4936353;28;89867;-54
2022/08/09 07:20:03;;;;;;;61.97;50.95;;;24.70;52.40;;;;;;4947730;28;93887;-57
2022/08/09 07:22:29;;;;;;;65.38;51.13;;;24.70;52.50;;;;;;4937050;28;92416;-53
2022/08/09 07:24:55;;;;;;;62.53;50.90;;;24.70;52.40;;;;;;4935199;28;89601;-54
2022/08/09 07:27:20;;;;;;;66.10;51.28;;;24.70;52.40;;;;;;4945744;28;90413;-56
2022/08/09 07:29:46;;;;;;;63.30;50.97;;;24.70;52.40;;;;;;4939305;28;94331;-55
2022/08/09 07:32:12;;;;;;;62.22;50.92;;;24.70;52.40;;;;;;4938016;28;91382;-56
2022/08/09 07:34:37;;;;;;;65.22;51.13;;;24.80;52.50;;;;;;4944847;28;95620;-53
2022/08/09 07:37:03;;;;;;;63.47;50.97;;;24.80;52.40;;;;;;4942952;28;90311;-56
2022/08/09 07:39:29;;;;;;;61.67;50.95;;;24.70;52.40;;;;;;4931449;28;90096;-54
2022/08/09 07:41:54;;;;;;;61.38;50.65;;;24.70;52.50;;;;;;4940293;28;94110;-49
2022/08/09 07:44:20;;;;;;;62.80;51.35;;;24.70;52.40;;;;;;4946954;28;89696;-55
2022/08/09 07:46:46;;;;;;;61.42;51.08;;;24.70;52.50;;;;;;4936537;28;89422;-56
2022/08/09 07:49:12;;;;;;;62.35;50.97;;;24.80;52.40;;;;;;4939456;28;90665;-53
2022/08/09 07:51:38;;;;;;;62.65;51.35;;;24.80;52.40;;;;;;4942076;28;91937;-56
2022/08/09 07:54:03;;;;;;;62.10;51.28;;;24.80;52.40;;;;;;4938918;28;91619;-59
2022/08/09 07:56:30;;;;;;;61.72;51.05;;;24.80;52.40;;;;;;4956446;28;89885;-55
2022/08/09 07:58:56;;;;;;;62.78;51.40;;;24.80;52.40;;;;;;4944166;28;90664;-54
2022/08/09 08:01:21;;;;;;;64.63;50.97;;;24.80;52.40;;;;;;4942066;28;92361;-57
2022/08/09 08:03:47;;;;;;;61.78;50.70;;;24.70;52.30;;;;;;4944184;28;90005;-57
2022/08/09 08:06:13;;;;;;;63.08;51.35;;;24.80;52.40;;;;;;4945255;28;94284;-57
2022/08/09 08:08:38;;;;;;;62.47;51.00;;;24.80;52.40;;;;;;4944228;28;90278;-55
2022/08/09 08:11:04;;;;;;;62.47;51.35;;;24.80;52.40;;;;;;4949739;28;89053;-56
2022/08/09 08:13:29;;;;;;;62.05;51.22;;;24.80;52.30;;;;;;4946571;28;90871;-55
2022/08/09 08:15:55;;;;;;;61.90;50.95;;;24.80;52.30;;;;;;4943252;28;95025;-56
2022/08/09 08:18:21;;;;;;;62.17;51.13;;;24.80;52.40;;;;;;4943629;28;90557;-53
2022/08/09 08:20:46;;;;;;;61.92;51.25;;;24.80;52.40;;;;;;4947740;28;92200;-54
2022/08/09 08:23:12;;;;;;;63.15;51.33;;;24.80;52.30;;;;;;4934929;28;90463;-54
2022/08/09 08:25:39;;;;;;;62.88;51.28;;;24.80;52.30;;;;;;4942738;28;90491;-54
2022/08/09 08:28:04;;;;;;;61.63;51.15;;;24.80;52.30;;;;;;4947879;28;91082;-53
2022/08/09 08:30:30;;;;;;;61.58;51.05;;;24.80;52.30;;;;;;4945450;28;94296;-53
2022/08/09 08:32:56;;;;;;;63.38;51.13;;;24.80;52.20;;;;;;4951456;28;89454;-54
2022/08/09 08:35:22;;;;;;;64.28;51.38;;;24.80;52.20;;;;;;4943941;28;90630;-56
2022/08/09 08:37:47;;;;;;;62.85;51.40;;;24.80;52.10;;;;;;4953015;28;91554;-53
2022/08/09 08:40:13;;;;;;;62.42;51.20;;;24.90;52.20;;;;;;4935204;28;92379;-56
2022/08/09 08:42:41;;;;;;;61.95;51.20;;;24.80;52.10;;;;;;4942011;28;91619;-56
2022/08/09 08:45:09;;;;;;;62.65;51.17;;;24.90;52.20;;;;;;4951015;28;89924;-49
2022/08/09 08:47:35;;;;;;;62.22;51.15;;;24.90;52.10;;;;;;4946170;28;93174;-54
2022/08/09 08:50:02;;;;;;;62.42;51.30;;;24.90;52.00;;;;;;4942249;28;91989;-55
2022/08/09 08:52:29;;;;;;;62.53;51.30;;;24.90;52.00;;;;;;4955888;28;90510;-56
2022/08/09 08:54:58;;;;;;;63.17;51.35;;;24.90;51.90;;;;;;4938739;28;90325;-54
2022/08/09 08:57:25;;;;;;;61.75;51.20;;;25.00;52.00;;;;;;4948605;28;89776;-53
2022/08/09 08:59:53;;;;;;;63.17;51.13;;;25.00;51.90;;;;;;4935948;28;89467;-56
2022/08/09 09:02:29;;;;;;;64.03;51.60;;;25.00;51.90;;;;;;4941473;28;90480;-53
2022/08/09 09:04:58;;;;;;;61.97;51.13;;;25.00;51.80;;;;;;4944699;28;89575;-56
2022/08/09 09:07:25;;;;;;;62.40;51.45;;;25.00;51.80;;;;;;4944312;28;93565;-56
2022/08/09 09:09:53;;;;;;;62.53;51.30;;;25.00;51.70;;;;;;4937411;28;91461;-56
2022/08/09 09:12:21;;;;;;;62.00;50.90;;;25.00;51.70;;;;;;4938714;28;90768;-53
2022/08/09 09:14:49;;;;;;;61.97;51.13;;;25.10;51.70;;;;;;4949608;28;91509;-54
2022/08/09 09:17:15;;;;;;;63.20;51.42;;;25.00;51.60;;;;;;4945976;28;91195;-54
2022/08/09 09:19:41;;;;;;;62.55;51.15;;;25.10;51.60;;;;;;4938007;28;92770;-53
2022/08/09 09:22:09;;;;;;;62.67;51.35;;;25.10;51.60;;;;;;4939694;28;95387;-55
2022/08/09 09:24:44;;;;;;;62.20;50.88;;;25.10;51.60;;;;;;4942634;28;89117;-54
2022/08/09 09:27:12;;;;;;;63.00;51.20;;;25.10;51.50;;;;;;4947405;28;90236;-55
2022/08/09 09:29:40;;;;;;;62.78;50.97;;;25.10;51.50;;;;;;4959596;28;90316;-54
2022/08/09 09:32:07;;;;;;;62.45;51.00;;;25.10;51.40;;;;;;4940153;28;90821;-51
2022/08/09 09:34:33;;;;;;;62.47;51.15;;;25.20;51.50;;;;;;4940225;28;94578;-53
2022/08/09 09:37:00;;;;;;;63.03;51.13;;;25.20;51.40;;;;;;4952406;28;91686;-53
2022/08/09 09:39:27;;;;;;;62.10;51.00;;;25.20;51.40;;;;;;4940346;28;90039;-52
2022/08/09 09:41:53;;;;;;;63.20;51.53;;;25.20;51.30;;;;;;4941522;28;93487;-54
2022/08/09 09:44:33;;;;;;;63.47;51.58;;;25.20;51.30;;;;;;4947724;28;90768;-54
2022/08/09 09:47:08;;;;;;;62.80;51.35;;;25.20;51.20;;;;;;4946179;28;90301;-51
2022/08/09 09:49:34;;;;;;;64.38;51.47;;;25.20;51.20;;;;;;4952095;28;90639;-52
2022/08/09 09:52:07;;;;;;;63.22;51.15;;;25.30;51.20;;;;;;4941579;28;89752;-51
2022/08/09 09:54:39;;;;;;;62.45;51.30;;;25.30;51.10;;;;;;4950028;28;89998;-53
2022/08/09 09:57:19;;;;;;;62.75;51.33;;;25.30;51.00;;;;;;4945176;28;93246;-58
2022/08/09 09:59:46;;;;;;;62.63;51.33;;;25.40;51.10;;;;;;4944573;28;89998;-53
2022/08/09 10:02:13;;;;;;;63.22;51.10;;;25.30;51.00;;;;;;4952044;28;90505;-56
2022/08/09 10:04:39;;;;;;;62.05;51.38;;;25.40;51.00;;;;;;4945480;28;89940;-55
2022/08/09 10:07:28;;;;;;;63.72;51.53;;;25.40;50.90;;;;;;4942697;28;95820;-55
2022/08/09 10:09:55;;;;;;;62.90;51.22;;;25.40;50.90;;;;;;4936096;28;89863;-54
2022/08/09 10:12:29;;;;;;;62.00;51.28;;;25.40;50.90;;;;;;4946232;28;90730;-47
2022/08/09 10:15:16;;;;;;;64.30;51.30;;;25.40;50.80;;;;;;4947836;28;90027;-52
2022/08/09 10:17:48;;;;;;;62.45;51.25;;;25.40;50.90;;;;;;4940842;28;93474;-57
2022/08/09 10:20:18;;;;;;;62.97;51.10;;;25.40;50.70;;;;;;4938677;28;90327;-54
2022/08/09 10:22:44;;;;;;;62.10;51.15;;;25.50;50.70;;;;;;4943167;28;91247;-52
2022/08/09 10:25:10;;;;;;;62.47;51.13;;;25.50;50.70;;;;;;4943009;28;90654;-56
2022/08/09 10:27:36;;;;;;;62.38;51.65;;;25.50;50.70;;;;;;4945404;28;90207;-54
2022/08/09 10:30:07;;;;;;;62.47;51.15;;;25.50;50.70;;;;;;4931297;28;95732;-55
2022/08/09 10:32:33;;;;;;;62.35;51.15;;;25.50;50.70;;;;;;4937298;28;91184;-54
2022/08/09 10:35:00;;;;;;;63.30;51.40;;;25.50;50.60;;;;;;4941502;28;90212;-54
2022/08/09 10:37:25;;;;;;;63.70;51.35;;;25.60;50.60;;;;;;4948575;28;90307;-54
2022/08/09 10:39:52;;;;;;;63.05;51.53;;;25.60;50.60;;;;;;4936697;28;89968;-48
2022/08/09 10:42:19;;;;;;;62.78;51.47;;;25.60;50.50;;;;;;4943297;28;89576;-54
2022/08/09 10:44:48;;;;;;;63.20;51.15;;;25.60;50.50;;;;;;4958792;28;92097;-56
2022/08/09 10:47:28;;;;;;;62.35;51.25;;;25.60;50.50;;;;;;4931995;28;91070;-55
2022/08/09 10:50:03;;;;;;;63.13;51.37;;;25.60;50.50;;;;;;4942464;28;90109;-55
2022/08/09 10:52:41;;;;;;;61.95;51.13;;;25.60;50.40;;;;;;4944919;28;93145;-47
2022/08/09 10:55:28;;;;;;;63.55;51.50;;;25.60;50.40;;;;;;4940914;28;92677;-50
2022/08/09 10:57:55;;;;;;;62.35;51.28;;;25.60;50.40;;;;;;4953617;28;91329;-55
2022/08/09 11:00:35;;;;;;;62.15;51.03;;;25.60;50.40;;;;;;4945132;28;90256;-47
2022/08/09 11:03:02;;;;;;;62.25;51.28;;;25.60;50.40;;;;;;4946048;28;89868;-53
2022/08/09 11:05:28;;;;;;;62.53;51.47;;;25.70;50.40;;;;;;4942736;28;92349;-53
2022/08/09 11:07:54;;;;;;;62.22;51.28;;;25.70;50.40;;;;;;4933118;28;90856;-54
2022/08/09 11:10:42;;;;;;;62.35;51.38;;;25.70;50.50;;;;;;4942209;28;92173;-53
2022/08/09 11:13:18;;;;;;;62.25;51.35;;;25.70;50.40;;;;;;4938327;28;90545;-55
2022/08/09 11:15:44;;;;;;;63.40;51.58;;;25.70;50.40;;;;;;4949714;28;90089;-55
2022/08/09 11:18:30;;;;;;;62.28;51.33;;;25.70;50.40;;;;;;4938137;28;95787;-53
2022/08/09 11:20:56;;;;;;;62.80;51.42;;;25.80;50.50;;;;;;4937676;28;92959;-54
2022/08/09 11:23:23;;;;;;;62.58;51.55;;;25.70;50.30;;;;;;4944661;28;90419;-53
2022/08/09 11:25:48;;;;;;;62.47;51.28;;;25.70;50.20;;;;;;4945013;28;90060;-53
2022/08/09 11:28:38;;;;;;;62.30;51.20;;;25.80;50.30;;;;;;4942780;28;90782;-55
2022/08/09 11:31:38;;;;;;;62.28;51.13;;;25.80;50.30;;;;;;4936845;28;91599;-53
2022/08/09 11:34:15;;;;;;;62.28;51.20;;;25.80;50.30;;;;;;4938499;28;90174;-50
2022/08/09 11:36:42;;;;;;;62.63;51.45;;;25.80;50.30;;;;;;4942381;28;90262;-48
2022/08/09 11:39:08;;;;;;;62.17;51.50;;;25.80;50.30;;;;;;4929049;28;95469;-51
2022/08/09 11:41:34;;;;;;;62.88;51.63;;;25.80;50.30;;;;;;4942674;28;91788;-55
2022/08/09 11:44:00;;;;;;;62.60;51.60;;;25.70;50.20;;;;;;4945152;28;89761;-55
2022/08/09 11:46:27;;;;;;;62.70;51.55;;;25.80;50.30;;;;;;4933143;28;92529;-54
2022/08/09 11:48:56;;;;;;;62.33;51.42;;;25.70;50.20;;;;;;4938582;28;94880;-50
2022/08/09 11:51:24;;;;;;;63.35;51.72;;;25.80;50.30;;;;;;4941008;28;90569;-52
2022/08/09 11:54:11;;;;;;;64.18;51.55;;;25.80;50.20;;;;;;4950547;28;89555;-54
2022/08/09 11:56:36;;;;;;;62.58;51.45;;;25.80;50.20;;;;;;4946511;28;91347;-54
2022/08/09 11:59:04;;;;;;;62.25;51.28;;;25.80;50.20;;;;;;4946535;28;90296;-51
2022/08/09 12:01:32;;;;;;;62.65;51.67;;;25.80;50.20;;;;;;4937386;28;92235;-53
2022/08/09 12:04:06;;;;;;;62.15;51.38;;;25.80;50.20;;;;;;4940327;28;91490;-50
2022/08/09 12:06:34;;;;;;;63.28;51.50;;;25.80;50.20;;;;;;4955163;28;89770;-53
2022/08/09 12:09:10;;;;;;;63.40;51.45;;;25.80;50.20;;;;;;4946529;28;93648;-53
2022/08/09 12:11:36;;;;;;;62.75;51.65;;;25.80;50.20;;;;;;4940021;28;92839;-57
2022/08/09 12:14:09;;;;;;;63.25;51.60;;;25.80;50.20;;;;;;4939988;28;90224;-53
2022/08/09 12:16:40;;;;;;;62.70;51.58;;;25.80;50.20;;;;;;4951215;28;93068;-54
2022/08/09 12:19:08;;;;;;;62.20;51.30;;;25.80;50.20;;;;;;4942531;28;90632;-55
2022/08/09 12:21:40;;;;;;;63.00;51.65;;;25.80;50.20;;;;;;4948847;28;97694;-56
2022/08/09 12:24:08;;;;;;;62.72;51.55;;;25.80;50.20;;;;;;4946712;28;90951;-54
2022/08/09 12:27:00;;;;;;;62.28;51.35;;;25.90;50.20;;;;;;4938484;28;94879;-46
2022/08/09 12:29:30;;;;;;;62.85;51.50;;;25.80;50.20;;;;;;4942483;28;91297;-51
2022/08/09 12:32:10;;;;;;;63.13;51.53;;;25.80;50.20;;;;;;4948082;28;90802;-53
2022/08/09 12:34:38;;;;;;;62.90;51.53;;;25.80;50.20;;;;;;4946891;28;90382;-53